Elmdale, New York
Current Conditions -  °F | °C
As of 5:58 PM on Tuesday 27 Jan 2015 (Local Time) from KGTB Reporting Station
Clear Clear  
Wind Chill: -6°   Ceiling: Unl
Heat Index:   Visibility: 10mi
Dew Point: -10°   Wind: 9mph
Humidity: 44%   Direction: 30°NNE
Pressure: 30.01"   Gusts: NA
Location:  44.3309°N, 75.4775°W
Report Text: KGTB 272258Z AUTO 03008KT 10SM CLR M13/M23 A3001 RMK AO2 SLP180 T11351234
Loading
Personal Weather Stations






























Interactive Weather Map New forecast layout! Learn more

10-Day Weather Forecast

Advertisements
Track Severe Weather on mobile